createdAt,value
2018-10-07T20:57:35.996Z,23.57
2018-10-07T21:00:04.837Z,33.65
2018-10-07T21:02:33.929Z,28.85
2018-10-07T21:05:02.743Z,17.35
2018-10-07T21:07:33.448Z,25.20
2018-10-07T21:10:02.249Z,20.80
2018-10-07T21:12:30.858Z,17.30
2018-10-07T21:14:59.542Z,13.85
2018-10-07T21:17:28.172Z,18.02
2018-10-07T21:19:56.888Z,15.95
2018-10-07T21:22:32.491Z,20.23
2018-10-07T21:25:01.177Z,25.25
2018-10-07T21:27:29.890Z,23.90
2018-10-07T21:29:59.154Z,33.30
2018-10-07T21:32:27.832Z,22.52
2018-10-07T21:34:56.642Z,33.25
2018-10-07T21:37:25.325Z,23.87
2018-10-07T21:39:54.078Z,25.65
2018-10-07T21:42:23.832Z,22.40
2018-10-07T21:44:53.717Z,15.53
2018-10-07T21:47:22.464Z,12.65
2018-10-07T21:49:51.188Z,13.05
2018-10-07T21:52:20.057Z,12.60
2018-10-07T21:54:48.801Z,12.73
2018-10-07T21:57:17.499Z,11.68
2018-10-07T21:59:46.131Z,11.75
2018-10-07T22:02:14.830Z,14.78
2018-10-07T22:04:43.462Z,11.43
2018-10-07T22:07:12.101Z,15.03
2018-10-07T22:09:40.909Z,10.90
2018-10-07T22:12:09.681Z,9.45
2018-10-07T22:14:38.523Z,11.00
2018-10-07T22:17:07.487Z,11.75
2018-10-07T22:19:36.299Z,10.90
2018-10-07T22:22:05.030Z,10.90
2018-10-07T22:24:34.129Z,13.62
2018-10-07T22:27:02.766Z,8.78
2018-10-07T22:29:32.622Z,10.80
2018-10-07T22:32:01.558Z,11.35
2018-10-07T22:34:30.396Z,9.78
2018-10-07T22:36:59.222Z,10.68
2018-10-07T22:39:28.235Z,7.83
2018-10-07T22:41:57.033Z,12.45
2018-10-07T22:44:25.936Z,7.00
2018-10-07T22:46:54.670Z,7.83
2018-10-07T22:49:23.472Z,11.12
2018-10-07T22:51:52.378Z,10.98
2018-10-07T22:54:21.135Z,10.78
2018-10-07T22:56:49.944Z,8.43
2018-10-07T22:59:18.715Z,8.50
2018-10-07T23:01:47.522Z,10.95
2018-10-07T23:04:16.211Z,8.70
2018-10-07T23:06:44.998Z,8.63
2018-10-07T23:09:14.194Z,12.43
2018-10-07T23:11:43.421Z,11.48
2018-10-07T23:14:12.229Z,10.65
2018-10-07T23:16:41.400Z,10.60
2018-10-07T23:19:10.038Z,11.88
2018-10-07T23:21:38.750Z,10.68
2018-10-07T23:24:07.471Z,8.48
2018-10-07T23:26:36.206Z,12.55
2018-10-07T23:29:05.015Z,11.28
2018-10-07T23:31:33.816Z,12.60
2018-10-07T23:34:02.624Z,12.45
2018-10-07T23:36:31.525Z,9.50
2018-10-07T23:39:00.246Z,12.98
2018-10-07T23:41:29.081Z,11.60
2018-10-07T23:43:58.057Z,11.38
2018-10-07T23:46:26.968Z,9.48
2018-10-07T23:48:55.718Z,14.18
2018-10-07T23:51:24.517Z,11.60
2018-10-07T23:53:53.517Z,11.70
2018-10-07T23:56:22.350Z,9.48
2018-10-07T23:58:51.172Z,10.85
